sensor_id;sensor_type;location;lat;lon;timestamp;temperature;humidity
66057;DHT22;52842;52.666;5.202;2022-08-03T00:00:43;22.70;77.90
66057;DHT22;52842;52.666;5.202;2022-08-03T00:03:11;22.70;77.90
66057;DHT22;52842;52.666;5.202;2022-08-03T00:05:37;22.60;77.90
66057;DHT22;52842;52.666;5.202;2022-08-03T00:08:04;22.60;77.90
66057;DHT22;52842;52.666;5.202;2022-08-03T00:10:31;22.60;77.90
66057;DHT22;52842;52.666;5.202;2022-08-03T00:12:57;22.60;77.90
66057;DHT22;52842;52.666;5.202;2022-08-03T00:15:24;22.60;77.90
66057;DHT22;52842;52.666;5.202;2022-08-03T00:17:51;22.60;78.00
66057;DHT22;52842;52.666;5.202;2022-08-03T00:20:19;22.60;77.90
66057;DHT22;52842;52.666;5.202;2022-08-03T00:22:46;22.60;77.90
66057;DHT22;52842;52.666;5.202;2022-08-03T00:25:12;22.60;78.00
66057;DHT22;52842;52.666;5.202;2022-08-03T00:27:39;22.60;77.90
66057;DHT22;52842;52.666;5.202;2022-08-03T00:30:06;22.60;78.00
66057;DHT22;52842;52.666;5.202;2022-08-03T00:32:33;22.60;77.90
66057;DHT22;52842;52.666;5.202;2022-08-03T00:34:59;22.60;78.00
66057;DHT22;52842;52.666;5.202;2022-08-03T00:37:27;22.60;78.00
66057;DHT22;52842;52.666;5.202;2022-08-03T00:39:54;22.60;78.00
66057;DHT22;52842;52.666;5.202;2022-08-03T00:42:20;22.60;78.00
66057;DHT22;52842;52.666;5.202;2022-08-03T00:44:47;22.60;78.00
66057;DHT22;52842;52.666;5.202;2022-08-03T00:47:14;22.60;78.00
66057;DHT22;52842;52.666;5.202;2022-08-03T00:49:40;22.60;78.00
66057;DHT22;52842;52.666;5.202;2022-08-03T00:52:07;22.60;78.00
66057;DHT22;52842;52.666;5.202;2022-08-03T00:54:36;22.50;78.00
66057;DHT22;52842;52.666;5.202;2022-08-03T00:57:02;22.50;78.00
66057;DHT22;52842;52.666;5.202;2022-08-03T00:59:29;22.50;78.00
66057;DHT22;52842;52.666;5.202;2022-08-03T01:01:56;22.50;78.10
66057;DHT22;52842;52.666;5.202;2022-08-03T01:04:23;22.50;78.10
66057;DHT22;52842;52.666;5.202;2022-08-03T01:06:51;22.50;78.20
66057;DHT22;52842;52.666;5.202;2022-08-03T01:09:25;22.50;78.20
66057;DHT22;52842;52.666;5.202;2022-08-03T01:11:55;22.50;78.20
66057;DHT22;52842;52.666;5.202;2022-08-03T01:14:26;22.50;78.20
66057;DHT22;52842;52.666;5.202;2022-08-03T01:16:56;22.50;78.30
66057;DHT22;52842;52.666;5.202;2022-08-03T01:19:35;22.40;78.20
66057;DHT22;52842;52.666;5.202;2022-08-03T01:22:09;22.50;78.40
66057;DHT22;52842;52.666;5.202;2022-08-03T01:24:43;22.40;78.30
66057;DHT22;52842;52.666;5.202;2022-08-03T01:27:17;22.40;78.30
66057;DHT22;52842;52.666;5.202;2022-08-03T01:29:51;22.40;78.30
66057;DHT22;52842;52.666;5.202;2022-08-03T01:32:19;22.40;78.30
66057;DHT22;52842;52.666;5.202;2022-08-03T01:34:47;22.40;78.30
66057;DHT22;52842;52.666;5.202;2022-08-03T01:37:18;22.40;79.30
66057;DHT22;52842;52.666;5.202;2022-08-03T01:39:47;22.40;78.40
66057;DHT22;52842;52.666;5.202;2022-08-03T01:42:14;22.40;78.40
66057;DHT22;52842;52.666;5.202;2022-08-03T01:44:42;22.40;78.40
66057;DHT22;52842;52.666;5.202;2022-08-03T01:47:12;22.40;78.40
66057;DHT22;52842;52.666;5.202;2022-08-03T01:49:39;22.40;78.40
66057;DHT22;52842;52.666;5.202;2022-08-03T01:52:08;22.40;78.40
66057;DHT22;52842;52.666;5.202;2022-08-03T01:54:36;22.40;78.50
66057;DHT22;52842;52.666;5.202;2022-08-03T01:57:05;22.40;78.40
66057;DHT22;52842;52.666;5.202;2022-08-03T01:59:33;22.40;78.50
66057;DHT22;52842;52.666;5.202;2022-08-03T02:02:00;22.40;78.50
66057;DHT22;52842;52.666;5.202;2022-08-03T02:04:29;22.40;78.50
66057;DHT22;52842;52.666;5.202;2022-08-03T02:06:56;22.40;78.50
66057;DHT22;52842;52.666;5.202;2022-08-03T02:09:23;22.40;78.50
66057;DHT22;52842;52.666;5.202;2022-08-03T02:11:50;22.40;78.60
66057;DHT22;52842;52.666;5.202;2022-08-03T02:14:17;22.30;78.50
66057;DHT22;52842;52.666;5.202;2022-08-03T02:16:45;22.30;78.50
66057;DHT22;52842;52.666;5.202;2022-08-03T02:19:12;22.30;78.50
66057;DHT22;52842;52.666;5.202;2022-08-03T02:21:41;22.30;78.60
66057;DHT22;52842;52.666;5.202;2022-08-03T02:24:09;22.30;78.60
66057;DHT22;52842;52.666;5.202;2022-08-03T02:26:36;22.30;78.60
66057;DHT22;52842;52.666;5.202;2022-08-03T02:29:04;22.30;78.60
66057;DHT22;52842;52.666;5.202;2022-08-03T02:31:33;22.30;78.70
66057;DHT22;52842;52.666;5.202;2022-08-03T02:34:03;22.30;78.70
66057;DHT22;52842;52.666;5.202;2022-08-03T02:36:32;22.30;78.70
66057;DHT22;52842;52.666;5.202;2022-08-03T02:39:01;22.30;78.70
66057;DHT22;52842;52.666;5.202;2022-08-03T02:41:31;22.30;78.80
66057;DHT22;52842;52.666;5.202;2022-08-03T02:43:58;22.30;78.80
66057;DHT22;52842;52.666;5.202;2022-08-03T02:46:27;22.20;78.80
66057;DHT22;52842;52.666;5.202;2022-08-03T02:48:55;22.20;78.70
66057;DHT22;52842;52.666;5.202;2022-08-03T02:51:23;22.20;78.80
66057;DHT22;52842;52.666;5.202;2022-08-03T02:53:50;22.20;78.80
66057;DHT22;52842;52.666;5.202;2022-08-03T02:56:19;22.20;78.90
66057;DHT22;52842;52.666;5.202;2022-08-03T02:58:47;22.20;78.90
66057;DHT22;52842;52.666;5.202;2022-08-03T03:01:14;22.20;78.90
66057;DHT22;52842;52.666;5.202;2022-08-03T03:03:44;22.20;78.90
66057;DHT22;52842;52.666;5.202;2022-08-03T03:06:11;22.20;78.90
66057;DHT22;52842;52.666;5.202;2022-08-03T03:08:38;22.20;78.90
66057;DHT22;52842;52.666;5.202;2022-08-03T03:11:05;22.20;79.00
66057;DHT22;52842;52.666;5.202;2022-08-03T03:13:34;22.20;79.00
66057;DHT22;52842;52.666;5.202;2022-08-03T03:16:02;22.20;79.00
66057;DHT22;52842;52.666;5.202;2022-08-03T03:18:30;22.20;79.00
66057;DHT22;52842;52.666;5.202;2022-08-03T03:20:57;22.20;79.10
66057;DHT22;52842;52.666;5.202;2022-08-03T03:23:24;22.20;79.10
66057;DHT22;52842;52.666;5.202;2022-08-03T03:25:51;22.10;79.00
66057;DHT22;52842;52.666;5.202;2022-08-03T03:28:18;22.10;79.10
66057;DHT22;52842;52.666;5.202;2022-08-03T03:30:47;22.10;79.10
66057;DHT22;52842;52.666;5.202;2022-08-03T03:33:13;22.10;79.10
66057;DHT22;52842;52.666;5.202;2022-08-03T03:35:40;22.10;79.10
66057;DHT22;52842;52.666;5.202;2022-08-03T03:38:08;22.10;79.10
66057;DHT22;52842;52.666;5.202;2022-08-03T03:40:35;22.10;79.10
66057;DHT22;52842;52.666;5.202;2022-08-03T03:43:02;22.10;79.20
66057;DHT22;52842;52.666;5.202;2022-08-03T03:45:29;22.10;79.20
66057;DHT22;52842;52.666;5.202;2022-08-03T03:47:57;22.10;79.20
66057;DHT22;52842;52.666;5.202;2022-08-03T03:50:24;22.10;79.20
66057;DHT22;52842;52.666;5.202;2022-08-03T03:52:51;22.10;79.20
66057;DHT22;52842;52.666;5.202;2022-08-03T03:55:18;22.10;79.30
66057;DHT22;52842;52.666;5.202;2022-08-03T03:57:44;22.10;79.30
66057;DHT22;52842;52.666;5.202;2022-08-03T04:00:12;22.10;79.40
66057;DHT22;52842;52.666;5.202;2022-08-03T04:02:39;22.10;79.40
66057;DHT22;52842;52.666;5.202;2022-08-03T04:05:07;22.10;79.40
66057;DHT22;52842;52.666;5.202;2022-08-03T04:07:54;22.00;79.40
66057;DHT22;52842;52.666;5.202;2022-08-03T04:10:41;22.00;79.40
66057;DHT22;52842;52.666;5.202;2022-08-03T04:13:24;22.00;79.40
66057;DHT22;52842;52.666;5.202;2022-08-03T04:15:52;22.00;79.40
66057;DHT22;52842;52.666;5.202;2022-08-03T04:18:20;22.00;79.40
66057;DHT22;52842;52.666;5.202;2022-08-03T04:20:48;22.00;79.50
66057;DHT22;52842;52.666;5.202;2022-08-03T04:23:16;22.00;79.50
66057;DHT22;52842;52.666;5.202;2022-08-03T04:25:43;22.00;79.50
66057;DHT22;52842;52.666;5.202;2022-08-03T04:28:11;22.00;79.60
66057;DHT22;52842;52.666;5.202;2022-08-03T04:30:38;22.00;79.60
66057;DHT22;52842;52.666;5.202;2022-08-03T04:33:11;22.00;79.70
66057;DHT22;52842;52.666;5.202;2022-08-03T04:35:38;22.00;79.70
66057;DHT22;52842;52.666;5.202;2022-08-03T04:38:07;21.90;79.70
66057;DHT22;52842;52.666;5.202;2022-08-03T04:40:35;21.90;79.70
66057;DHT22;52842;52.666;5.202;2022-08-03T04:43:02;21.90;79.70
66057;DHT22;52842;52.666;5.202;2022-08-03T04:45:30;21.90;79.80
66057;DHT22;52842;52.666;5.202;2022-08-03T04:47:58;21.90;79.80
66057;DHT22;52842;52.666;5.202;2022-08-03T04:50:25;21.90;79.80
66057;DHT22;52842;52.666;5.202;2022-08-03T04:52:52;21.90;79.80
66057;DHT22;52842;52.666;5.202;2022-08-03T04:55:26;21.90;79.80
66057;DHT22;52842;52.666;5.202;2022-08-03T04:57:53;21.90;79.80
66057;DHT22;52842;52.666;5.202;2022-08-03T05:00:20;21.90;79.80
66057;DHT22;52842;52.666;5.202;2022-08-03T05:02:47;21.90;79.90
66057;DHT22;52842;52.666;5.202;2022-08-03T05:05:14;21.90;80.00
66057;DHT22;52842;52.666;5.202;2022-08-03T05:07:41;21.90;80.00
66057;DHT22;52842;52.666;5.202;2022-08-03T05:10:09;21.90;80.00
66057;DHT22;52842;52.666;5.202;2022-08-03T05:12:37;21.90;80.10
66057;DHT22;52842;52.666;5.202;2022-08-03T05:15:04;21.90;80.80
66057;DHT22;52842;52.666;5.202;2022-08-03T05:17:31;22.00;80.10
66057;DHT22;52842;52.666;5.202;2022-08-03T05:19:59;22.00;80.20
66057;DHT22;52842;52.666;5.202;2022-08-03T05:22:27;22.00;80.20
66057;DHT22;52842;52.666;5.202;2022-08-03T05:24:53;22.00;80.20
66057;DHT22;52842;52.666;5.202;2022-08-03T05:27:20;22.00;80.20
66057;DHT22;52842;52.666;5.202;2022-08-03T05:29:48;22.00;80.30
66057;DHT22;52842;52.666;5.202;2022-08-03T05:32:16;22.00;80.30
66057;DHT22;52842;52.666;5.202;2022-08-03T05:34:43;22.10;80.40
66057;DHT22;52842;52.666;5.202;2022-08-03T05:37:09;22.10;80.50
66057;DHT22;52842;52.666;5.202;2022-08-03T05:39:36;22.10;80.50
66057;DHT22;52842;52.666;5.202;2022-08-03T05:42:03;22.10;80.50
66057;DHT22;52842;52.666;5.202;2022-08-03T05:44:30;22.10;80.40
66057;DHT22;52842;52.666;5.202;2022-08-03T05:46:58;22.10;80.40
66057;DHT22;52842;52.666;5.202;2022-08-03T05:49:25;22.10;80.30
66057;DHT22;52842;52.666;5.202;2022-08-03T05:51:51;22.10;80.30
66057;DHT22;52842;52.666;5.202;2022-08-03T05:54:18;22.10;80.30
66057;DHT22;52842;52.666;5.202;2022-08-03T05:56:45;22.10;80.40
66057;DHT22;52842;52.666;5.202;2022-08-03T05:59:11;22.10;80.70
66057;DHT22;52842;52.666;5.202;2022-08-03T06:01:38;22.10;80.60
66057;DHT22;52842;52.666;5.202;2022-08-03T06:04:06;22.10;80.60
66057;DHT22;52842;52.666;5.202;2022-08-03T06:06:33;22.10;80.60
66057;DHT22;52842;52.666;5.202;2022-08-03T06:08:59;22.10;80.40
66057;DHT22;52842;52.666;5.202;2022-08-03T06:11:26;22.10;80.30
66057;DHT22;52842;52.666;5.202;2022-08-03T06:13:53;22.10;80.30
66057;DHT22;52842;52.666;5.202;2022-08-03T06:16:19;22.20;80.20
66057;DHT22;52842;52.666;5.202;2022-08-03T06:18:46;22.10;80.20
66057;DHT22;52842;52.666;5.202;2022-08-03T06:21:14;22.20;80.20
66057;DHT22;52842;52.666;5.202;2022-08-03T06:23:42;22.20;80.20
66057;DHT22;52842;52.666;5.202;2022-08-03T06:26:08;22.20;80.30
66057;DHT22;52842;52.666;5.202;2022-08-03T06:28:35;22.20;80.20
66057;DHT22;52842;52.666;5.202;2022-08-03T06:31:02;22.20;80.20
66057;DHT22;52842;52.666;5.202;2022-08-03T06:33:29;22.20;80.20
66057;DHT22;52842;52.666;5.202;2022-08-03T06:35:55;22.20;80.20
66057;DHT22;52842;52.666;5.202;2022-08-03T06:38:23;22.20;80.20
66057;DHT22;52842;52.666;5.202;2022-08-03T06:40:50;22.20;80.30
66057;DHT22;52842;52.666;5.202;2022-08-03T06:43:17;22.20;80.40
66057;DHT22;52842;52.666;5.202;2022-08-03T06:45:43;22.20;80.60
66057;DHT22;52842;52.666;5.202;2022-08-03T06:48:10;22.20;80.50
66057;DHT22;52842;52.666;5.202;2022-08-03T06:50:38;22.20;80.60
66057;DHT22;52842;52.666;5.202;2022-08-03T06:53:05;22.20;80.60
66057;DHT22;52842;52.666;5.202;2022-08-03T06:55:34;22.20;80.60
66057;DHT22;52842;52.666;5.202;2022-08-03T06:58:01;22.20;80.70
66057;DHT22;52842;52.666;5.202;2022-08-03T07:00:28;22.20;80.80
66057;DHT22;52842;52.666;5.202;2022-08-03T07:02:55;22.20;80.80
66057;DHT22;52842;52.666;5.202;2022-08-03T07:05:21;22.20;80.80
66057;DHT22;52842;52.666;5.202;2022-08-03T07:07:48;22.20;80.90
66057;DHT22;52842;52.666;5.202;2022-08-03T07:10:15;22.20;81.00
66057;DHT22;52842;52.666;5.202;2022-08-03T07:12:43;22.20;81.10
66057;DHT22;52842;52.666;5.202;2022-08-03T07:15:10;22.20;81.10
66057;DHT22;52842;52.666;5.202;2022-08-03T07:17:37;22.20;81.20
66057;DHT22;52842;52.666;5.202;2022-08-03T07:20:05;22.20;81.20
66057;DHT22;52842;52.666;5.202;2022-08-03T07:22:32;22.20;81.30
66057;DHT22;52842;52.666;5.202;2022-08-03T07:24:59;22.20;81.30
66057;DHT22;52842;52.666;5.202;2022-08-03T07:27:26;22.20;81.30
66057;DHT22;52842;52.666;5.202;2022-08-03T07:29:54;22.20;81.40
66057;DHT22;52842;52.666;5.202;2022-08-03T07:32:21;22.20;81.50
66057;DHT22;52842;52.666;5.202;2022-08-03T07:34:48;22.20;81.60
66057;DHT22;52842;52.666;5.202;2022-08-03T07:37:15;22.20;81.60
66057;DHT22;52842;52.666;5.202;2022-08-03T07:39:42;22.20;81.60
66057;DHT22;52842;52.666;5.202;2022-08-03T07:42:09;22.30;81.60
66057;DHT22;52842;52.666;5.202;2022-08-03T07:44:35;22.30;81.40
66057;DHT22;52842;52.666;5.202;2022-08-03T07:47:04;22.30;81.30
66057;DHT22;52842;52.666;5.202;2022-08-03T07:49:31;22.30;81.20
66057;DHT22;52842;52.666;5.202;2022-08-03T07:51:58;22.30;81.10
66057;DHT22;52842;52.666;5.202;2022-08-03T07:54:42;22.30;80.90
66057;DHT22;52842;52.666;5.202;2022-08-03T07:57:09;22.30;80.80
66057;DHT22;52842;52.666;5.202;2022-08-03T07:59:36;22.40;80.70
66057;DHT22;52842;52.666;5.202;2022-08-03T08:02:06;22.40;80.70
66057;DHT22;52842;52.666;5.202;2022-08-03T08:04:32;22.40;80.60
66057;DHT22;52842;52.666;5.202;2022-08-03T08:06:59;22.40;80.60
66057;DHT22;52842;52.666;5.202;2022-08-03T08:09:26;22.40;80.60
66057;DHT22;52842;52.666;5.202;2022-08-03T08:11:52;22.40;80.70
66057;DHT22;52842;52.666;5.202;2022-08-03T08:14:19;22.40;80.70
66057;DHT22;52842;52.666;5.202;2022-08-03T08:16:46;22.40;80.70
66057;DHT22;52842;52.666;5.202;2022-08-03T08:19:15;22.50;80.90
66057;DHT22;52842;52.666;5.202;2022-08-03T08:21:41;22.50;80.70
66057;DHT22;52842;52.666;5.202;2022-08-03T08:24:08;22.50;80.90
66057;DHT22;52842;52.666;5.202;2022-08-03T08:26:35;22.50;81.00
66057;DHT22;52842;52.666;5.202;2022-08-03T08:29:02;22.50;80.90
66057;DHT22;52842;52.666;5.202;2022-08-03T08:31:29;22.50;80.60
66057;DHT22;52842;52.666;5.202;2022-08-03T08:33:55;22.50;80.40
66057;DHT22;52842;52.666;5.202;2022-08-03T08:36:23;22.50;80.20
66057;DHT22;52842;52.666;5.202;2022-08-03T08:38:50;22.50;80.00
66057;DHT22;52842;52.666;5.202;2022-08-03T08:41:17;22.60;79.90
66057;DHT22;52842;52.666;5.202;2022-08-03T08:43:43;22.60;79.70
66057;DHT22;52842;52.666;5.202;2022-08-03T08:46:11;22.60;79.60
66057;DHT22;52842;52.666;5.202;2022-08-03T08:48:39;22.60;79.50
66057;DHT22;52842;52.666;5.202;2022-08-03T08:51:06;22.60;79.40
66057;DHT22;52842;52.666;5.202;2022-08-03T08:53:35;22.60;79.20
66057;DHT22;52842;52.666;5.202;2022-08-03T08:56:02;22.60;79.20
66057;DHT22;52842;52.666;5.202;2022-08-03T08:58:33;22.60;79.10
66057;DHT22;52842;52.666;5.202;2022-08-03T09:01:00;22.60;79.00
66057;DHT22;52842;52.666;5.202;2022-08-03T09:03:27;22.60;78.90
66057;DHT22;52842;52.666;5.202;2022-08-03T09:05:53;22.70;78.90
66057;DHT22;52842;52.666;5.202;2022-08-03T09:08:20;22.70;78.90
66057;DHT22;52842;52.666;5.202;2022-08-03T09:10:49;22.70;78.80
66057;DHT22;52842;52.666;5.202;2022-08-03T09:13:16;22.70;78.80
66057;DHT22;52842;52.666;5.202;2022-08-03T09:15:42;22.70;78.80
66057;DHT22;52842;52.666;5.202;2022-08-03T09:18:10;22.70;78.70
66057;DHT22;52842;52.666;5.202;2022-08-03T09:20:38;22.70;78.60
66057;DHT22;52842;52.666;5.202;2022-08-03T09:23:05;22.70;78.50
66057;DHT22;52842;52.666;5.202;2022-08-03T09:25:33;22.70;78.50
66057;DHT22;52842;52.666;5.202;2022-08-03T09:28:05;22.70;78.40
66057;DHT22;52842;52.666;5.202;2022-08-03T09:30:32;22.80;78.40
66057;DHT22;52842;52.666;5.202;2022-08-03T09:33:00;22.80;78.40
66057;DHT22;52842;52.666;5.202;2022-08-03T09:35:27;22.80;78.30
66057;DHT22;52842;52.666;5.202;2022-08-03T09:38:07;22.80;78.20
66057;DHT22;52842;52.666;5.202;2022-08-03T09:40:34;22.80;78.20
66057;DHT22;52842;52.666;5.202;2022-08-03T09:43:01;22.80;78.90
66057;DHT22;52842;52.666;5.202;2022-08-03T09:45:29;22.80;78.10
66057;DHT22;52842;52.666;5.202;2022-08-03T09:47:56;22.80;78.00
66057;DHT22;52842;52.666;5.202;2022-08-03T09:50:24;22.80;77.90
66057;DHT22;52842;52.666;5.202;2022-08-03T09:52:50;22.90;78.00
66057;DHT22;52842;52.666;5.202;2022-08-03T09:55:17;22.90;77.90
66057;DHT22;52842;52.666;5.202;2022-08-03T09:57:47;22.90;77.90
66057;DHT22;52842;52.666;5.202;2022-08-03T10:00:15;22.90;77.80
66057;DHT22;52842;52.666;5.202;2022-08-03T10:02:43;22.90;77.80
66057;DHT22;52842;52.666;5.202;2022-08-03T10:05:11;22.90;77.80
66057;DHT22;52842;52.666;5.202;2022-08-03T10:07:41;22.90;77.80
66057;DHT22;52842;52.666;5.202;2022-08-03T10:10:08;22.90;77.70
66057;DHT22;52842;52.666;5.202;2022-08-03T10:12:35;22.90;77.60
66057;DHT22;52842;52.666;5.202;2022-08-03T10:15:02;23.00;77.70
66057;DHT22;52842;52.666;5.202;2022-08-03T10:17:29;23.00;77.60
66057;DHT22;52842;52.666;5.202;2022-08-03T10:19:57;23.00;77.60
66057;DHT22;52842;52.666;5.202;2022-08-03T10:22:25;23.00;77.60
66057;DHT22;52842;52.666;5.202;2022-08-03T10:24:54;23.00;77.50
66057;DHT22;52842;52.666;5.202;2022-08-03T10:27:21;23.00;77.50
66057;DHT22;52842;52.666;5.202;2022-08-03T10:29:49;23.00;77.50
66057;DHT22;52842;52.666;5.202;2022-08-03T10:32:17;23.00;77.50
66057;DHT22;52842;52.666;5.202;2022-08-03T10:34:46;23.00;77.50
66057;DHT22;52842;52.666;5.202;2022-08-03T10:37:17;23.10;78.30
66057;DHT22;52842;52.666;5.202;2022-08-03T10:39:44;23.10;77.60
66057;DHT22;52842;52.666;5.202;2022-08-03T10:42:19;23.10;77.70
66057;DHT22;52842;52.666;5.202;2022-08-03T10:44:46;23.10;77.70
66057;DHT22;52842;52.666;5.202;2022-08-03T10:47:15;23.10;77.60
66057;DHT22;52842;52.666;5.202;2022-08-03T10:49:41;23.10;77.50
66057;DHT22;52842;52.666;5.202;2022-08-03T10:52:10;23.10;77.50
66057;DHT22;52842;52.666;5.202;2022-08-03T10:54:39;23.20;77.60
66057;DHT22;52842;52.666;5.202;2022-08-03T10:57:46;23.20;77.50
66057;DHT22;52842;52.666;5.202;2022-08-03T11:00:13;23.20;77.50
66057;DHT22;52842;52.666;5.202;2022-08-03T11:05:41;23.20;77.40
66057;DHT22;52842;52.666;5.202;2022-08-03T11:08:21;23.20;77.30
66057;DHT22;52842;52.666;5.202;2022-08-03T11:10:50;23.20;77.30
66057;DHT22;52842;52.666;5.202;2022-08-03T11:13:18;23.20;77.30
66057;DHT22;52842;52.666;5.202;2022-08-03T11:15:46;23.30;77.40
66057;DHT22;52842;52.666;5.202;2022-08-03T11:18:13;23.30;77.40
66057;DHT22;52842;52.666;5.202;2022-08-03T11:20:44;23.30;77.40
66057;DHT22;52842;52.666;5.202;2022-08-03T11:23:11;23.30;77.30
66057;DHT22;52842;52.666;5.202;2022-08-03T11:28:27;23.30;77.20
66057;DHT22;52842;52.666;5.202;2022-08-03T11:30:54;23.30;77.20
66057;DHT22;52842;52.666;5.202;2022-08-03T11:33:30;23.40;77.20
66057;DHT22;52842;52.666;5.202;2022-08-03T11:35:58;23.40;77.20
66057;DHT22;52842;52.666;5.202;2022-08-03T11:38:24;23.40;77.20
66057;DHT22;52842;52.666;5.202;2022-08-03T11:40:52;23.40;77.20
66057;DHT22;52842;52.666;5.202;2022-08-03T11:46:10;23.40;77.10
66057;DHT22;52842;52.666;5.202;2022-08-03T11:48:41;23.40;77.00
66057;DHT22;52842;52.666;5.202;2022-08-03T11:51:17;23.50;77.00
66057;DHT22;52842;52.666;5.202;2022-08-03T11:53:44;23.50;77.00
66057;DHT22;52842;52.666;5.202;2022-08-03T11:56:12;23.50;77.00
66057;DHT22;52842;52.666;5.202;2022-08-03T11:58:45;23.50;77.00
66057;DHT22;52842;52.666;5.202;2022-08-03T12:01:13;23.50;76.90
66057;DHT22;52842;52.666;5.202;2022-08-03T12:03:41;23.50;76.90
66057;DHT22;52842;52.666;5.202;2022-08-03T12:06:08;23.50;76.90
66057;DHT22;52842;52.666;5.202;2022-08-03T12:08:35;23.50;76.90
66057;DHT22;52842;52.666;5.202;2022-08-03T12:11:02;23.50;76.80
66057;DHT22;52842;52.666;5.202;2022-08-03T12:13:38;23.50;76.80
66057;DHT22;52842;52.666;5.202;2022-08-03T12:16:05;23.50;76.80
66057;DHT22;52842;52.666;5.202;2022-08-03T12:18:33;23.60;76.80
66057;DHT22;52842;52.666;5.202;2022-08-03T12:21:04;23.60;76.80
66057;DHT22;52842;52.666;5.202;2022-08-03T12:23:31;23.60;76.70
66057;DHT22;52842;52.666;5.202;2022-08-03T12:26:00;23.60;76.70
66057;DHT22;52842;52.666;5.202;2022-08-03T12:28:27;23.60;76.60
66057;DHT22;52842;52.666;5.202;2022-08-03T12:30:54;23.60;76.70
66057;DHT22;52842;52.666;5.202;2022-08-03T12:33:21;23.60;76.60
66057;DHT22;52842;52.666;5.202;2022-08-03T12:35:51;23.60;76.60
66057;DHT22;52842;52.666;5.202;2022-08-03T12:38:27;23.70;76.60
66057;DHT22;52842;52.666;5.202;2022-08-03T12:40:58;23.70;76.50
66057;DHT22;52842;52.666;5.202;2022-08-03T12:43:25;23.70;76.40
66057;DHT22;52842;52.666;5.202;2022-08-03T12:46:05;23.70;76.40
66057;DHT22;52842;52.666;5.202;2022-08-03T12:48:31;23.70;76.40
66057;DHT22;52842;52.666;5.202;2022-08-03T12:51:07;23.70;76.40
66057;DHT22;52842;52.666;5.202;2022-08-03T12:53:34;23.70;76.50
66057;DHT22;52842;52.666;5.202;2022-08-03T12:56:01;23.70;76.40
66057;DHT22;52842;52.666;5.202;2022-08-03T12:58:28;23.70;76.50
66057;DHT22;52842;52.666;5.202;2022-08-03T13:00:57;23.80;76.50
66057;DHT22;52842;52.666;5.202;2022-08-03T13:03:24;23.80;76.50
66057;DHT22;52842;52.666;5.202;2022-08-03T13:05:51;23.80;76.50
66057;DHT22;52842;52.666;5.202;2022-08-03T13:08:19;23.80;76.50
66057;DHT22;52842;52.666;5.202;2022-08-03T13:10:46;23.80;76.40
66057;DHT22;52842;52.666;5.202;2022-08-03T13:13:13;23.80;76.30
66057;DHT22;52842;52.666;5.202;2022-08-03T13:15:40;23.80;76.30
66057;DHT22;52842;52.666;5.202;2022-08-03T13:18:07;23.80;76.30
66057;DHT22;52842;52.666;5.202;2022-08-03T13:20:34;23.90;76.30
66057;DHT22;52842;52.666;5.202;2022-08-03T13:23:01;23.90;76.20
66057;DHT22;52842;52.666;5.202;2022-08-03T13:25:29;23.90;76.20
66057;DHT22;52842;52.666;5.202;2022-08-03T13:27:55;23.90;76.20
66057;DHT22;52842;52.666;5.202;2022-08-03T13:30:22;23.90;76.20
66057;DHT22;52842;52.666;5.202;2022-08-03T13:32:49;23.90;76.10
66057;DHT22;52842;52.666;5.202;2022-08-03T13:35:15;23.90;76.10
66057;DHT22;52842;52.666;5.202;2022-08-03T13:37:42;23.90;76.10
66057;DHT22;52842;52.666;5.202;2022-08-03T13:40:09;23.90;76.10
66057;DHT22;52842;52.666;5.202;2022-08-03T13:42:37;23.90;76.00
66057;DHT22;52842;52.666;5.202;2022-08-03T13:45:04;24.00;76.00
66057;DHT22;52842;52.666;5.202;2022-08-03T13:47:31;24.00;76.00
66057;DHT22;52842;52.666;5.202;2022-08-03T13:49:58;24.00;76.00
66057;DHT22;52842;52.666;5.202;2022-08-03T13:52:25;24.00;76.00
66057;DHT22;52842;52.666;5.202;2022-08-03T13:54:51;24.00;75.90
66057;DHT22;52842;52.666;5.202;2022-08-03T13:57:18;24.00;75.90
66057;DHT22;52842;52.666;5.202;2022-08-03T13:59:46;24.00;76.60
66057;DHT22;52842;52.666;5.202;2022-08-03T14:02:14;24.00;75.90
66057;DHT22;52842;52.666;5.202;2022-08-03T14:04:40;24.00;75.80
66057;DHT22;52842;52.666;5.202;2022-08-03T14:07:07;24.00;75.90
66057;DHT22;52842;52.666;5.202;2022-08-03T14:09:33;24.00;75.80
66057;DHT22;52842;52.666;5.202;2022-08-03T14:12:01;24.10;75.80
66057;DHT22;52842;52.666;5.202;2022-08-03T14:14:28;24.10;75.80
66057;DHT22;52842;52.666;5.202;2022-08-03T14:16:56;24.10;75.80
66057;DHT22;52842;52.666;5.202;2022-08-03T14:19:22;24.10;75.70
66057;DHT22;52842;52.666;5.202;2022-08-03T14:21:49;24.10;75.70
66057;DHT22;52842;52.666;5.202;2022-08-03T14:24:16;24.10;75.70
66057;DHT22;52842;52.666;5.202;2022-08-03T14:26:42;24.10;75.60
66057;DHT22;52842;52.666;5.202;2022-08-03T14:29:09;24.10;75.60
66057;DHT22;52842;52.666;5.202;2022-08-03T14:31:36;24.10;75.60
66057;DHT22;52842;52.666;5.202;2022-08-03T14:34:04;24.20;75.60
66057;DHT22;52842;52.666;5.202;2022-08-03T14:36:31;24.20;75.60
66057;DHT22;52842;52.666;5.202;2022-08-03T14:38:57;24.20;75.60
66057;DHT22;52842;52.666;5.202;2022-08-03T14:41:24;24.20;75.50
66057;DHT22;52842;52.666;5.202;2022-08-03T14:43:51;24.20;75.60
66057;DHT22;52842;52.666;5.202;2022-08-03T14:46:17;24.20;75.50
66057;DHT22;52842;52.666;5.202;2022-08-03T14:48:44;24.20;75.50
66057;DHT22;52842;52.666;5.202;2022-08-03T14:51:12;24.20;75.60
66057;DHT22;52842;52.666;5.202;2022-08-03T14:53:39;24.20;75.60
66057;DHT22;52842;52.666;5.202;2022-08-03T14:56:06;24.20;75.50
66057;DHT22;52842;52.666;5.202;2022-08-03T14:58:32;24.20;75.40
66057;DHT22;52842;52.666;5.202;2022-08-03T15:00:59;24.20;75.40
66057;DHT22;52842;52.666;5.202;2022-08-03T15:03:25;24.30;75.40
66057;DHT22;52842;52.666;5.202;2022-08-03T15:05:53;24.20;75.30
66057;DHT22;52842;52.666;5.202;2022-08-03T15:08:21;24.30;75.40
66057;DHT22;52842;52.666;5.202;2022-08-03T15:10:48;24.30;75.40
66057;DHT22;52842;52.666;5.202;2022-08-03T15:13:15;24.30;75.30
66057;DHT22;52842;52.666;5.202;2022-08-03T15:15:42;24.30;75.30
66057;DHT22;52842;52.666;5.202;2022-08-03T15:18:09;24.30;75.30
66057;DHT22;52842;52.666;5.202;2022-08-03T15:20:35;24.30;75.40
66057;DHT22;52842;52.666;5.202;2022-08-03T15:23:02;24.40;75.50
66057;DHT22;52842;52.666;5.202;2022-08-03T15:25:30;24.40;75.60
66057;DHT22;52842;52.666;5.202;2022-08-03T15:27:57;24.40;75.60
66057;DHT22;52842;52.666;5.202;2022-08-03T15:30:24;24.40;75.70
66057;DHT22;52842;52.666;5.202;2022-08-03T15:32:50;24.40;75.70
66057;DHT22;52842;52.666;5.202;2022-08-03T15:35:17;24.40;75.70
66057;DHT22;52842;52.666;5.202;2022-08-03T15:37:44;24.40;75.70
66057;DHT22;52842;52.666;5.202;2022-08-03T15:40:11;24.50;75.70
66057;DHT22;52842;52.666;5.202;2022-08-03T15:42:39;24.50;75.70